Time;durP1;ratioP1;P1;durP2;ratioP2;P2;SDS_P1;SDS_P2;PMS_P1;PMS_P2;Temp;Humidity;BMP_temperature;BMP_pressure;BME280_temperature;BME280_humidity;BME280_pressure;Samples;Min_cycle;Max_cycle;Signal;HPM_P1;HPM_P2
2023/06/22 00:02:02;;;;;;;13.73;10.03;;;21.50;99.90;;;;;;5000666;28;20458;-74
2023/06/22 00:04:28;;;;;;;12.13;10.37;;;21.50;99.90;;;;;;4995214;28;20522;-73
2023/06/22 00:06:55;;;;;;;14.90;10.60;;;21.50;99.90;;;;;;5005119;28;20584;-73
2023/06/22 00:09:21;;;;;;;11.17;10.00;;;21.40;99.90;;;;;;5004784;28;20509;-73
2023/06/22 00:11:48;;;;;;;11.33;10.13;;;21.30;99.90;;;;;;5003780;28;20466;-74
2023/06/22 00:14:15;;;;;;;17.90;10.50;;;21.20;99.90;;;;;;4994621;28;20544;-73
2023/06/22 00:16:43;;;;;;;14.23;10.23;;;21.20;99.90;;;;;;5003529;28;20514;-74
2023/06/22 00:19:11;;;;;;;11.27;9.97;;;21.20;99.90;;;;;;5003443;28;20478;-74
2023/06/22 00:21:38;;;;;;;13.90;10.33;;;21.30;99.90;;;;;;4993958;28;20463;-74
2023/06/22 00:24:06;;;;;;;12.57;10.83;;;21.30;99.90;;;;;;5006659;28;20481;-73
2023/06/22 00:26:33;;;;;;;15.87;11.23;;;21.30;99.90;;;;;;4993714;28;21001;-73
2023/06/22 00:28:59;;;;;;;15.60;11.50;;;21.40;99.90;;;;;;4994226;28;21001;-74
2023/06/22 00:31:26;;;;;;;12.70;11.20;;;21.30;99.90;;;;;;4998034;28;21203;-74
2023/06/22 00:33:54;;;;;;;15.20;12.10;;;21.40;99.90;;;;;;5003929;28;20911;-74
2023/06/22 00:36:21;;;;;;;13.57;12.17;;;21.20;99.90;;;;;;5005437;28;20532;-74
2023/06/22 00:38:50;;;;;;;14.20;11.80;;;21.30;99.90;;;;;;4998811;28;20459;-74
2023/06/22 00:41:17;;;;;;;14.23;11.23;;;21.10;99.90;;;;;;4994391;28;20970;-75
2023/06/22 00:43:43;;;;;;;16.83;11.93;;;21.10;99.90;;;;;;4994147;28;21003;-75
2023/06/22 00:46:10;;;;;;;12.70;11.40;;;21.10;99.90;;;;;;4996062;28;20459;-74
2023/06/22 00:48:37;;;;;;;12.33;11.03;;;21.10;99.90;;;;;;5004686;28;20454;-74
2023/06/22 00:51:05;;;;;;;13.77;10.97;;;21.20;99.90;;;;;;5003882;28;20550;-75
2023/06/22 00:53:34;;;;;;;15.10;11.50;;;21.20;99.90;;;;;;4990766;28;20841;-74
2023/06/22 00:56:03;;;;;;;14.77;10.80;;;21.20;99.90;;;;;;4995163;28;20553;-74
2023/06/22 00:58:30;;;;;;;13.27;10.57;;;21.20;99.90;;;;;;4997761;28;20486;-74
2023/06/22 01:00:57;;;;;;;14.30;11.60;;;21.30;99.90;;;;;;4999586;28;20454;-74
2023/06/22 01:03:24;;;;;;;12.83;11.10;;;21.30;99.90;;;;;;5004012;28;20525;-74
2023/06/22 01:05:51;;;;;;;15.73;11.40;;;21.30;99.90;;;;;;4990690;28;20455;-74
2023/06/22 01:08:27;;;;;;;13.60;11.47;;;21.30;99.90;;;;;;4992987;28;20459;-74
2023/06/22 01:11:00;;;;;;;13.07;11.70;;;21.30;99.90;;;;;;4998935;28;20458;-74
2023/06/22 01:13:33;;;;;;;17.17;11.10;;;21.30;99.90;;;;;;4999480;28;20493;-74
2023/06/22 01:16:04;;;;;;;38.87;12.60;;;21.20;99.90;;;;;;5005577;28;20494;-73
2023/06/22 01:18:36;;;;;;;19.97;12.20;;;21.20;99.90;;;;;;5000705;28;20955;-73
2023/06/22 01:21:07;;;;;;;13.40;11.77;;;21.10;99.90;;;;;;4999325;28;21064;-73
2023/06/22 01:23:50;;;;;;;12.97;11.60;;;21.00;99.90;;;;;;4994144;28;20471;-74
2023/06/22 01:26:21;;;;;;;16.60;12.40;;;20.90;99.90;;;;;;5006018;28;20489;-74
2023/06/22 01:28:51;;;;;;;14.60;13.10;;;20.70;99.90;;;;;;5008226;28;20467;-74
2023/06/22 01:31:20;;;;;;;17.97;13.50;;;20.70;99.90;;;;;;5006280;28;21313;-74
2023/06/22 01:33:51;;;;;;;13.60;12.20;;;20.60;99.90;;;;;;5000904;28;20481;-74
2023/06/22 01:36:19;;;;;;;16.77;12.90;;;20.60;99.90;;;;;;4998571;28;21028;-74
2023/06/22 01:38:46;;;;;;;16.30;13.10;;;20.50;99.90;;;;;;4996094;28;20489;-74
2023/06/22 01:41:13;;;;;;;16.80;13.17;;;20.50;99.90;;;;;;5006186;28;20458;-74
2023/06/22 01:43:41;;;;;;;22.60;13.00;;;20.50;99.90;;;;;;5008642;28;20539;-74
2023/06/22 01:46:09;;;;;;;14.63;12.40;;;20.50;99.90;;;;;;4994522;28;20532;-74
2023/06/22 01:48:36;;;;;;;14.93;13.40;;;20.40;99.90;;;;;;5001132;28;20582;-74
2023/06/22 01:51:03;;;;;;;17.33;13.60;;;20.40;99.90;;;;;;4999732;28;20458;-74
2023/06/22 01:53:30;;;;;;;17.40;13.07;;;20.40;99.90;;;;;;5003184;28;20493;-74
2023/06/22 01:55:57;;;;;;;18.00;13.63;;;20.50;99.90;;;;;;5001503;28;20451;-74
2023/06/22 01:58:27;;;;;;;16.43;13.27;;;20.50;99.90;;;;;;5004196;28;20593;-74
2023/06/22 02:00:59;;;;;;;19.03;15.20;;;20.40;99.90;;;;;;5008185;28;20458;-74
2023/06/22 02:03:32;;;;;;;15.77;13.53;;;20.40;99.90;;;;;;4996668;28;20525;-74
2023/06/22 02:06:05;;;;;;;21.20;15.40;;;20.40;99.90;;;;;;5004688;28;20528;-73
2023/06/22 02:08:41;;;;;;;25.70;16.17;;;20.30;99.90;;;;;;5007752;28;20610;-74
2023/06/22 02:11:10;;;;;;;22.47;17.00;;;20.30;99.90;;;;;;5003002;28;20457;-74
2023/06/22 02:13:37;;;;;;;20.50;16.73;;;20.20;99.90;;;;;;5002157;28;20493;-74
2023/06/22 02:16:05;;;;;;;19.03;16.43;;;20.20;99.90;;;;;;5000833;28;20451;-74
2023/06/22 02:18:35;;;;;;;18.13;16.27;;;20.10;99.90;;;;;;5005647;28;20466;-73
2023/06/22 02:21:02;;;;;;;18.47;15.90;;;20.10;99.90;;;;;;5006837;28;20451;-74
2023/06/22 02:23:28;;;;;;;16.70;14.90;;;20.00;99.90;;;;;;5009024;28;20902;-73
2023/06/22 02:25:55;;;;;;;17.33;15.50;;;20.10;99.90;;;;;;4994344;28;20483;-73
2023/06/22 02:28:22;;;;;;;15.90;14.27;;;20.10;99.90;;;;;;5002407;28;20958;-74
2023/06/22 02:30:48;;;;;;;18.23;16.23;;;20.10;99.90;;;;;;4997544;28;20451;-74
2023/06/22 02:33:15;;;;;;;18.47;16.37;;;20.10;99.90;;;;;;5001688;28;20486;-74
2023/06/22 02:35:45;;;;;;;26.60;17.07;;;20.10;99.90;;;;;;5006826;28;20893;-74
2023/06/22 02:38:12;;;;;;;19.20;16.20;;;20.10;99.90;;;;;;4998487;28;20890;-74
2023/06/22 02:40:38;;;;;;;20.37;17.40;;;20.10;99.90;;;;;;4995161;28;20458;-74
2023/06/22 02:43:05;;;;;;;20.90;16.63;;;20.00;99.90;;;;;;4997494;28;20478;-73
2023/06/22 02:45:32;;;;;;;20.30;15.93;;;20.00;99.90;;;;;;5003773;28;20958;-73
2023/06/22 02:47:59;;;;;;;18.47;15.40;;;20.00;99.90;;;;;;5006366;28;20880;-74
2023/06/22 02:50:26;;;;;;;18.27;16.20;;;19.90;99.90;;;;;;5001027;28;20459;-74
2023/06/22 02:52:53;;;;;;;27.30;16.60;;;19.90;99.90;;;;;;5001339;28;20510;-73
2023/06/22 02:55:20;;;;;;;21.57;15.60;;;19.80;99.90;;;;;;4999305;28;20458;-73
2023/06/22 02:57:47;;;;;;;18.30;16.40;;;19.80;99.90;;;;;;5000682;28;20482;-74
2023/06/22 03:00:17;;;;;;;18.63;16.63;;;19.80;99.90;;;;;;5002104;28;20454;-73
2023/06/22 03:02:45;;;;;;;19.40;16.93;;;19.90;99.90;;;;;;5007021;28;20528;-73
2023/06/22 03:05:13;;;;;;;21.17;17.47;;;19.90;99.90;;;;;;4992550;28;21033;-74
2023/06/22 03:07:41;;;;;;;22.87;17.23;;;19.90;99.90;;;;;;5002271;28;20454;-73
2023/06/22 03:10:10;;;;;;;21.07;17.20;;;19.90;99.90;;;;;;5002645;28;20472;-73
2023/06/22 03:12:37;;;;;;;19.40;16.43;;;19.90;99.90;;;;;;4996765;28;20483;-73
2023/06/22 03:15:05;;;;;;;20.97;17.07;;;19.90;99.90;;;;;;5006250;28;20502;-73
2023/06/22 03:17:31;;;;;;;23.43;16.93;;;19.90;99.90;;;;;;5009786;28;20462;-73
2023/06/22 03:19:58;;;;;;;19.67;17.57;;;19.90;99.90;;;;;;5002898;28;20455;-73
2023/06/22 03:22:25;;;;;;;22.20;18.23;;;19.90;99.90;;;;;;4997501;28;20959;-73
2023/06/22 03:24:51;;;;;;;28.33;18.00;;;19.80;99.90;;;;;;4997164;28;20455;-73
2023/06/22 03:27:19;;;;;;;18.73;16.80;;;19.90;99.90;;;;;;4998538;28;20450;-73
2023/06/22 03:29:46;;;;;;;21.40;18.17;;;19.80;99.90;;;;;;4999526;28;20459;-73
2023/06/22 03:32:12;;;;;;;19.30;16.97;;;19.80;99.90;;;;;;5006683;28;21040;-73
2023/06/22 03:34:39;;;;;;;20.03;16.53;;;19.80;99.90;;;;;;4995757;28;20542;-73
2023/06/22 03:37:06;;;;;;;20.80;18.00;;;19.80;99.90;;;;;;5000507;28;20458;-73
2023/06/22 03:39:33;;;;;;;21.30;17.20;;;19.80;99.90;;;;;;5005725;28;20458;-73
2023/06/22 03:42:00;;;;;;;20.73;16.40;;;19.80;99.90;;;;;;5004473;28;20943;-73
2023/06/22 03:44:28;;;;;;;19.50;16.10;;;19.80;99.90;;;;;;5002587;28;20547;-73
2023/06/22 03:46:54;;;;;;;23.10;17.50;;;19.70;99.90;;;;;;5001321;28;20517;-73
2023/06/22 03:49:21;;;;;;;20.40;16.80;;;19.70;99.90;;;;;;4999323;28;20516;-73
2023/06/22 03:51:47;;;;;;;22.77;17.17;;;19.70;99.90;;;;;;5000678;28;20934;-73
2023/06/22 03:54:14;;;;;;;22.50;17.80;;;19.70;99.90;;;;;;5001954;28;20986;-73
2023/06/22 03:56:41;;;;;;;19.93;17.47;;;19.80;99.90;;;;;;4998681;28;21223;-73
2023/06/22 03:59:07;;;;;;;20.73;17.30;;;19.80;99.90;;;;;;4994840;28;20532;-73
2023/06/22 04:01:36;;;;;;;25.37;18.27;;;19.80;99.90;;;;;;5003550;28;21014;-73
2023/06/22 04:04:03;;;;;;;22.67;17.00;;;19.80;99.90;;;;;;5000784;28;21019;-73
2023/06/22 04:06:29;;;;;;;22.13;17.70;;;19.90;99.90;;;;;;5007256;28;20462;-73
2023/06/22 04:08:56;;;;;;;27.00;18.30;;;19.80;99.90;;;;;;5005535;28;20493;-73
2023/06/22 04:11:23;;;;;;;22.70;17.60;;;19.80;99.90;;;;;;4995769;28;20514;-72
2023/06/22 04:13:51;;;;;;;20.57;16.80;;;19.80;99.90;;;;;;4999708;28;20498;-73
2023/06/22 04:16:18;;;;;;;22.70;17.63;;;19.80;99.90;;;;;;4999313;28;20455;-73
2023/06/22 04:18:46;;;;;;;32.73;18.50;;;19.80;99.90;;;;;;4998542;28;20459;-73
2023/06/22 04:21:14;;;;;;;25.63;19.37;;;19.80;99.90;;;;;;5001389;28;20950;-73
2023/06/22 04:23:41;;;;;;;28.57;18.40;;;19.80;99.90;;;;;;4992929;28;20479;-73
2023/06/22 04:26:07;;;;;;;25.67;19.33;;;19.80;99.90;;;;;;4995283;28;20509;-73
2023/06/22 04:28:34;;;;;;;23.50;20.60;;;19.80;99.90;;;;;;4999488;28;20512;-73
2023/06/22 04:31:02;;;;;;;24.43;19.53;;;19.80;99.90;;;;;;4997844;28;20474;-73
2023/06/22 04:33:29;;;;;;;23.77;18.63;;;19.80;99.90;;;;;;4995608;28;20474;-73
2023/06/22 04:35:57;;;;;;;22.00;18.23;;;19.90;99.90;;;;;;4999044;28;20873;-73
2023/06/22 04:38:24;;;;;;;28.90;19.50;;;19.90;99.90;;;;;;4995195;28;20566;-72
2023/06/22 04:40:53;;;;;;;25.80;18.83;;;19.90;99.90;;;;;;5000504;28;20455;-73
2023/06/22 04:43:19;;;;;;;24.50;19.43;;;19.90;99.90;;;;;;5000763;28;20475;-73
2023/06/22 04:45:46;;;;;;;23.43;19.37;;;20.00;99.90;;;;;;5002107;28;20454;-73
2023/06/22 04:48:15;;;;;;;25.30;18.70;;;20.00;99.90;;;;;;5008050;28;20458;-73
2023/06/22 04:50:42;;;;;;;26.10;20.00;;;20.00;99.90;;;;;;5000400;28;20463;-73
2023/06/22 04:53:12;;;;;;;25.27;20.60;;;20.00;99.90;;;;;;4996803;28;20531;-73
2023/06/22 04:55:41;;;;;;;26.97;18.47;;;20.00;99.90;;;;;;4997091;28;20990;-73
2023/06/22 04:58:08;;;;;;;30.53;21.07;;;20.00;99.90;;;;;;5005177;28;20451;-73
2023/06/22 05:00:36;;;;;;;30.63;21.23;;;20.00;99.90;;;;;;5009626;28;20485;-73
2023/06/22 05:03:03;;;;;;;30.30;20.97;;;20.10;99.90;;;;;;4995505;28;20557;-74
2023/06/22 05:05:30;;;;;;;27.67;21.67;;;20.10;99.90;;;;;;5007469;28;20451;-74
2023/06/22 05:08:00;;;;;;;27.13;22.40;;;20.10;99.90;;;;;;5001035;28;20455;-74
2023/06/22 05:10:28;;;;;;;26.93;21.40;;;20.10;99.90;;;;;;5003061;28;20455;-74
2023/06/22 05:12:54;;;;;;;28.07;21.67;;;20.20;99.90;;;;;;5008961;28;20482;-73
2023/06/22 05:15:22;;;;;;;33.90;21.90;;;20.20;99.90;;;;;;5000935;28;21013;-73
2023/06/22 05:17:49;;;;;;;33.13;21.20;;;20.20;99.90;;;;;;4998180;28;20462;-73
2023/06/22 05:20:17;;;;;;;35.23;21.63;;;20.30;99.90;;;;;;5000934;28;20450;-73
2023/06/22 05:22:44;;;;;;;34.90;22.10;;;20.40;99.90;;;;;;5002017;28;20497;-73
2023/06/22 05:25:12;;;;;;;29.33;20.07;;;20.40;99.90;;;;;;5008787;28;20865;-73
2023/06/22 05:27:40;;;;;;;25.53;19.10;;;20.30;99.90;;;;;;5006758;28;21128;-73
2023/06/22 05:30:07;;;;;;;27.23;20.90;;;20.50;99.90;;;;;;4999268;28;20455;-74
2023/06/22 05:32:34;;;;;;;28.83;20.10;;;20.60;99.90;;;;;;4998667;28;20471;-73
2023/06/22 05:35:01;;;;;;;26.10;21.70;;;20.70;99.90;;;;;;5001749;28;20530;-73
2023/06/22 05:37:27;;;;;;;26.70;21.50;;;20.70;99.90;;;;;;5001049;28;20882;-73
2023/06/22 05:39:55;;;;;;;34.73;21.97;;;20.80;99.90;;;;;;5006456;28;20453;-74
2023/06/22 05:42:22;;;;;;;29.13;20.27;;;20.90;99.90;;;;;;5007979;28;20485;-73
2023/06/22 05:44:50;;;;;;;30.37;20.17;;;21.00;99.90;;;;;;5008017;28;20461;-73
2023/06/22 05:47:17;;;;;;;28.50;19.67;;;21.10;99.90;;;;;;4997797;28;20455;-73
2023/06/22 05:49:44;;;;;;;23.27;19.90;;;21.20;99.90;;;;;;5003564;28;20466;-73
2023/06/22 05:52:10;;;;;;;28.00;19.83;;;21.30;99.90;;;;;;5001912;28;20523;-74
2023/06/22 05:54:38;;;;;;;28.70;21.60;;;21.30;99.90;;;;;;5007345;28;20482;-74
2023/06/22 05:57:05;;;;;;;24.20;19.63;;;21.40;99.90;;;;;;5000715;28;20509;-74
2023/06/22 05:59:32;;;;;;;30.87;19.50;;;21.50;99.90;;;;;;4994877;28;21227;-74
2023/06/22 06:02:00;;;;;;;27.93;20.80;;;21.60;99.90;;;;;;4997525;28;20517;-74
2023/06/22 06:04:26;;;;;;;26.33;20.17;;;21.70;99.90;;;;;;5004787;28;20998;-73
2023/06/22 06:06:53;;;;;;;29.97;18.73;;;21.80;99.90;;;;;;5005876;28;20466;-75
2023/06/22 06:09:20;;;;;;;26.50;19.40;;;21.90;99.90;;;;;;5001613;28;21191;-74
2023/06/22 06:11:46;;;;;;;25.40;19.20;;;22.10;99.90;;;;;;5005500;28;21026;-74
2023/06/22 06:14:13;;;;;;;34.73;20.50;;;22.20;99.90;;;;;;5015122;28;20482;-74
2023/06/22 06:16:40;;;;;;;30.13;19.40;;;22.40;99.90;;;;;;5015032;28;20916;-74
2023/06/22 06:19:08;;;;;;;30.07;18.80;;;22.60;99.90;;;;;;5015170;28;20958;-74
2023/06/22 06:21:35;;;;;;;32.20;18.20;;;22.80;99.90;;;;;;5016584;28;20534;-74
2023/06/22 06:24:02;;;;;;;32.30;18.00;;;23.00;99.90;;;;;;5016079;28;20477;-74
2023/06/22 06:26:29;;;;;;;33.30;18.20;;;23.00;99.90;;;;;;5016308;28;20523;-74
2023/06/22 06:28:56;;;;;;;32.90;18.40;;;23.00;99.90;;;;;;5016307;28;20497;-73
2023/06/22 06:31:23;;;;;;;23.43;19.23;;;23.10;99.90;;;;;;5016723;28;20497;-74
2023/06/22 06:33:50;;;;;;;27.60;17.60;;;23.20;99.90;;;;;;5014150;28;20551;-73
2023/06/22 06:36:18;;;;;;;23.17;17.27;;;23.40;99.90;;;;;;5015503;28;20841;-74
2023/06/22 06:38:46;;;;;;;25.67;16.17;;;23.50;99.90;;;;;;5015939;28;20515;-72
2023/06/22 06:41:13;;;;;;;21.10;16.17;;;23.80;99.90;;;;;;5017026;28;20457;-73
2023/06/22 06:43:40;;;;;;;25.60;16.97;;;24.10;99.90;;;;;;5016990;28;20493;-73
2023/06/22 06:46:06;;;;;;;23.87;16.47;;;24.30;99.90;;;;;;5015346;28;21011;-74
2023/06/22 06:48:33;;;;;;;24.53;17.33;;;24.40;99.90;;;;;;5017681;28;20455;-74
2023/06/22 06:51:00;;;;;;;23.17;15.87;;;24.60;99.90;;;;;;5016391;28;20873;-75
2023/06/22 06:53:28;;;;;;;21.87;16.33;;;24.80;99.90;;;;;;5016382;28;20473;-74
2023/06/22 06:55:55;;;;;;;21.93;16.37;;;24.90;99.90;;;;;;5016004;28;21104;-74
2023/06/22 06:58:22;;;;;;;20.60;13.73;;;25.10;99.90;;;;;;5017371;28;20820;-74
2023/06/22 07:00:49;;;;;;;21.90;15.63;;;25.20;99.90;;;;;;5015061;28;20892;-75
2023/06/22 07:03:16;;;;;;;16.90;14.37;;;25.30;99.90;;;;;;5016560;28;20469;-75
2023/06/22 07:05:42;;;;;;;19.30;14.77;;;25.50;99.90;;;;;;5015894;28;20517;-75
2023/06/22 07:08:09;;;;;;;17.83;15.43;;;25.70;99.90;;;;;;5016806;28;20465;-74
2023/06/22 07:10:37;;;;;;;25.70;15.70;;;26.00;99.90;;;;;;5017004;28;20466;-74
2023/06/22 07:13:03;;;;;;;24.47;14.90;;;26.00;99.90;;;;;;5016534;28;20574;-75
2023/06/22 07:15:30;;;;;;;22.83;14.37;;;26.00;99.90;;;;;;5015343;28;20485;-74
2023/06/22 07:17:57;;;;;;;21.10;13.40;;;26.00;99.90;;;;;;5015064;28;20477;-72
2023/06/22 07:20:23;;;;;;;16.60;14.13;;;26.00;99.90;;;;;;5014585;28;20749;-73
2023/06/22 07:22:50;;;;;;;18.97;14.67;;;26.10;99.90;;;;;;5014189;28;20529;-73
2023/06/22 07:25:17;;;;;;;18.13;13.93;;;26.10;99.90;;;;;;5015767;28;20872;-73
2023/06/22 07:27:57;;;;;;;17.73;15.03;;;26.20;99.90;;;;;;5016302;28;20457;-72
2023/06/22 07:30:24;;;;;;;23.93;14.47;;;26.20;99.90;;;;;;5014687;28;20462;-73
2023/06/22 07:32:50;;;;;;;18.47;13.30;;;26.20;99.90;;;;;;5014931;28;20478;-73
2023/06/22 07:35:17;;;;;;;17.30;14.07;;;26.30;99.90;;;;;;5015354;28;20492;-73
2023/06/22 07:37:44;;;;;;;16.10;13.90;;;26.50;99.90;;;;;;5016155;28;20470;-73
2023/06/22 07:40:11;;;;;;;17.50;14.40;;;26.70;99.90;;;;;;5016011;28;20458;-73
2023/06/22 07:42:38;;;;;;;19.50;14.37;;;26.90;99.90;;;;;;5015002;28;20530;-73
2023/06/22 07:45:08;;;;;;;16.90;13.37;;;27.10;99.90;;;;;;5014354;28;20456;-73
2023/06/22 07:47:35;;;;;;;16.13;12.70;;;27.20;99.90;;;;;;5014450;28;20458;-73
2023/06/22 07:50:02;;;;;;;18.00;12.37;;;27.40;99.90;;;;;;5015112;28;20469;-73
2023/06/22 07:52:30;;;;;;;14.97;12.37;;;27.60;99.90;;;;;;5014734;28;20525;-72
2023/06/22 07:54:57;;;;;;;17.20;12.30;;;27.80;99.90;;;;;;5014626;28;20497;-72
2023/06/22 07:57:31;;;;;;;15.83;11.63;;;28.00;99.90;;;;;;5015011;28;20450;-72
2023/06/22 07:59:58;;;;;;;17.90;12.03;;;28.20;99.90;;;;;;5015901;28;21271;-72
2023/06/22 08:02:26;;;;;;;17.70;12.13;;;28.30;99.90;;;;;;5014260;28;20996;-72
2023/06/22 08:04:53;;;;;;;13.40;11.93;;;28.30;99.90;;;;;;5015186;28;20455;-72
2023/06/22 08:07:19;;;;;;;19.10;12.97;;;28.50;99.90;;;;;;5015751;28;20971;-72
2023/06/22 08:09:48;;;;;;;15.50;12.30;;;28.60;99.90;;;;;;5015372;28;20454;-72
2023/06/22 08:12:15;;;;;;;14.87;12.33;;;28.70;99.90;;;;;;5014748;28;20462;-72
2023/06/22 08:14:43;;;;;;;13.43;11.30;;;28.70;99.90;;;;;;5014387;28;20462;-72
2023/06/22 08:17:09;;;;;;;14.00;11.47;;;28.80;99.90;;;;;;5015190;28;20511;-72
2023/06/22 08:19:38;;;;;;;12.30;11.10;;;29.00;99.90;;;;;;5015324;28;21041;-73
2023/06/22 08:22:05;;;;;;;14.37;12.53;;;29.00;99.90;;;;;;5014680;28;20808;-72
2023/06/22 08:24:31;;;;;;;14.03;10.70;;;29.00;99.90;;;;;;5014706;28;20473;-72
2023/06/22 08:26:58;;;;;;;16.20;11.97;;;28.90;99.90;;;;;;5014005;28;20961;-73
2023/06/22 08:29:25;;;;;;;14.00;10.37;;;29.20;99.90;;;;;;5015089;28;20895;-72
2023/06/22 08:31:51;;;;;;;13.00;10.13;;;29.40;99.90;;;;;;5014433;28;20509;-72
2023/06/22 08:34:21;;;;;;;11.53;9.87;;;29.40;99.90;;;;;;5014630;28;20879;-73
2023/06/22 08:36:51;;;;;;;13.40;10.60;;;29.40;99.90;;;;;;5014330;28;20485;-73
2023/06/22 08:39:18;;;;;;;11.50;9.67;;;29.50;99.90;;;;;;5015310;28;20464;-73
2023/06/22 08:41:44;;;;;;;12.67;10.07;;;29.50;99.90;;;;;;5014020;28;20507;-73
2023/06/22 08:44:11;;;;;;;10.27;8.93;;;29.60;99.90;;;;;;5014829;28;20480;-73
2023/06/22 08:46:40;;;;;;;11.53;8.90;;;29.70;99.90;;;;;;5014248;28;20458;-73
2023/06/22 08:49:07;;;;;;;14.47;9.90;;;29.90;99.90;;;;;;5014733;28;20456;-73
2023/06/22 08:51:33;;;;;;;17.10;10.13;;;30.00;99.90;;;;;;5014469;28;20537;-73
2023/06/22 08:54:01;;;;;;;13.90;9.03;;;30.10;99.90;;;;;;5014588;28;20867;-73
2023/06/22 08:56:28;;;;;;;12.77;9.47;;;30.20;99.90;;;;;;5013792;28;20481;-72
2023/06/22 08:58:55;;;;;;;10.33;9.23;;;30.10;99.90;;;;;;5014648;28;20516;-73
2023/06/22 09:01:23;;;;;;;10.87;9.33;;;30.10;99.90;;;;;;5013930;28;20466;-72
2023/06/22 09:03:55;;;;;;;14.93;10.10;;;29.70;99.90;;;;;;5012257;28;20564;-72
2023/06/22 09:06:22;;;;;;;11.10;9.77;;;29.50;99.90;;;;;;5014191;28;20455;-72
2023/06/22 09:08:49;;;;;;;12.00;8.83;;;29.50;99.90;;;;;;5015146;28;20454;-73
2023/06/22 09:11:17;;;;;;;10.23;9.10;;;29.90;99.90;;;;;;5014571;28;20939;-73
2023/06/22 09:13:44;;;;;;;10.73;8.97;;;30.10;99.90;;;;;;5014025;28;21210;-73
2023/06/22 09:16:11;;;;;;;13.90;9.00;;;30.10;99.90;;;;;;5013279;28;21001;-74
2023/06/22 09:18:38;;;;;;;11.47;9.73;;;30.20;99.90;;;;;;5014513;28;20464;-73
2023/06/22 09:21:04;;;;;;;10.93;9.43;;;30.10;99.90;;;;;;5013619;28;20516;-73
2023/06/22 09:23:31;;;;;;;10.93;9.43;;;29.90;99.90;;;;;;5013723;28;20473;-73
2023/06/22 09:25:58;;;;;;;12.20;9.73;;;29.70;99.90;;;;;;5014651;28;20496;-73
2023/06/22 09:28:25;;;;;;;12.33;10.53;;;29.40;99.90;;;;;;5014626;28;21016;-73
2023/06/22 09:30:58;;;;;;;12.80;9.67;;;29.10;99.90;;;;;;5014721;28;20481;-73
2023/06/22 09:33:25;;;;;;;10.33;9.33;;;29.00;99.90;;;;;;5014034;28;20623;-73
2023/06/22 09:35:52;;;;;;;10.57;9.47;;;28.60;99.90;;;;;;5014892;28;20544;-73
2023/06/22 09:38:19;;;;;;;10.70;9.50;;;28.70;99.90;;;;;;5013617;28;20517;-73
2023/06/22 09:40:45;;;;;;;13.70;10.00;;;29.10;99.90;;;;;;5014089;28;21005;-73
2023/06/22 09:43:12;;;;;;;13.60;8.63;;;29.50;99.90;;;;;;5013549;28;20481;-74
2023/06/22 09:45:40;;;;;;;9.63;8.73;;;29.90;99.90;;;;;;5017945;28;20449;-74
2023/06/22 09:48:07;;;;;;;12.10;10.00;;;30.10;99.90;;;;;;5017581;28;20484;-73
2023/06/22 09:50:33;;;;;;;13.00;9.73;;;30.10;99.90;;;;;;5018049;28;21064;-73
2023/06/22 09:53:00;;;;;;;13.93;9.30;;;30.00;99.90;;;;;;5017204;28;20570;-74
2023/06/22 09:55:26;;;;;;;10.60;9.50;;;29.80;99.90;;;;;;5016107;28;20527;-73
2023/06/22 09:57:54;;;;;;;13.63;9.73;;;29.90;99.90;;;;;;5016768;28;20462;-73
2023/06/22 10:00:21;;;;;;;14.37;10.83;;;29.60;99.90;;;;;;5016902;28;20525;-74
2023/06/22 10:02:50;;;;;;;13.13;10.60;;;29.70;99.90;;;;;;5016345;28;20488;-73
2023/06/22 10:05:17;;;;;;;13.00;10.90;;;29.60;99.90;;;;;;5016202;28;20468;-73
2023/06/22 10:07:43;;;;;;;11.03;10.03;;;29.50;99.90;;;;;;5017387;28;21135;-73
2023/06/22 10:10:10;;;;;;;13.63;9.97;;;29.40;99.90;;;;;;5016592;28;20534;-73
2023/06/22 10:12:37;;;;;;;11.00;9.20;;;29.40;99.90;;;;;;5017326;28;20477;-73
2023/06/22 10:15:05;;;;;;;11.00;9.70;;;29.50;99.90;;;;;;5017633;28;20455;-73
2023/06/22 10:17:31;;;;;;;11.90;9.57;;;29.70;99.90;;;;;;5017558;28;20493;-73
2023/06/22 10:20:00;;;;;;;15.00;9.80;;;29.60;99.90;;;;;;5017216;28;21140;-73
2023/06/22 10:22:27;;;;;;;12.13;8.90;;;29.60;99.90;;;;;;5017029;28;20941;-73
2023/06/22 10:24:53;;;;;;;9.23;8.30;;;29.60;99.90;;;;;;5017469;28;20453;-73
2023/06/22 10:27:20;;;;;;;10.00;9.00;;;30.00;99.90;;;;;;5017195;28;20477;-73
2023/06/22 10:29:47;;;;;;;10.77;9.67;;;30.20;99.90;;;;;;5017511;28;20453;-73
2023/06/22 10:32:13;;;;;;;10.63;8.40;;;30.20;99.90;;;;;;5015676;28;20503;-73
2023/06/22 10:34:40;;;;;;;9.20;8.33;;;30.10;99.90;;;;;;5017389;28;20520;-72
2023/06/22 10:37:08;;;;;;;13.07;8.20;;;30.30;99.90;;;;;;5018015;28;20586;-72
2023/06/22 10:39:35;;;;;;;13.77;8.23;;;30.30;99.90;;;;;;5018065;28;20463;-72
2023/06/22 10:42:01;;;;;;;12.63;8.07;;;30.30;99.90;;;;;;5018273;28;20881;-73
2023/06/22 10:44:28;;;;;;;9.43;8.43;;;30.50;99.90;;;;;;5017841;28;20474;-72
2023/06/22 10:46:55;;;;;;;11.43;9.40;;;30.50;99.90;;;;;;5018398;28;20487;-72
2023/06/22 10:49:21;;;;;;;11.30;8.87;;;30.40;99.90;;;;;;5017715;28;20441;-72
2023/06/22 10:51:48;;;;;;;14.13;8.40;;;30.40;99.90;;;;;;5017726;28;21069;-72
2023/06/22 10:54:18;;;;;;;10.93;9.07;;;30.60;99.90;;;;;;5017413;28;20536;-72
2023/06/22 10:56:44;;;;;;;9.90;8.70;;;30.60;99.90;;;;;;5016160;28;20485;-72
2023/06/22 10:59:11;;;;;;;11.70;8.90;;;30.40;99.90;;;;;;5017366;28;20462;-72
2023/06/22 11:01:38;;;;;;;15.00;9.17;;;30.40;99.90;;;;;;5016531;28;20489;-72
2023/06/22 11:04:04;;;;;;;12.27;8.53;;;30.40;99.90;;;;;;5016612;28;20508;-72
2023/06/22 11:06:31;;;;;;;8.97;8.10;;;30.50;99.90;;;;;;5017004;28;20459;-72
2023/06/22 11:08:58;;;;;;;9.33;8.43;;;30.80;99.90;;;;;;5016831;28;20535;-73
2023/06/22 11:11:26;;;;;;;10.20;8.40;;;31.00;99.90;;;;;;5016863;28;20885;-72
2023/06/22 11:13:53;;;;;;;14.40;8.20;;;30.80;99.90;;;;;;5016273;28;20476;-72
2023/06/22 11:16:20;;;;;;;9.87;8.17;;;30.80;99.90;;;;;;5016435;28;20548;-72
2023/06/22 11:18:46;;;;;;;10.60;7.60;;;30.70;99.90;;;;;;5017186;28;20881;-72
2023/06/22 11:21:13;;;;;;;9.50;8.30;;;30.60;99.90;;;;;;5017492;28;20454;-73
2023/06/22 11:23:40;;;;;;;9.70;8.43;;;30.60;99.90;;;;;;5017054;28;20477;-73
2023/06/22 11:26:06;;;;;;;8.77;7.57;;;30.60;99.90;;;;;;5016342;28;20442;-73
2023/06/22 11:28:34;;;;;;;11.70;8.37;;;30.60;99.90;;;;;;5016907;28;20528;-73
2023/06/22 11:31:01;;;;;;;9.70;7.73;;;30.60;99.90;;;;;;5016629;28;20450;-73
2023/06/22 11:33:28;;;;;;;11.37;8.07;;;30.80;99.90;;;;;;5016473;28;20477;-73
2023/06/22 11:35:56;;;;;;;9.67;8.10;;;31.10;99.90;;;;;;5018043;28;20462;-73
2023/06/22 11:38:22;;;;;;;8.87;8.07;;;31.10;99.90;;;;;;5016781;28;20966;-73
2023/06/22 11:40:49;;;;;;;8.90;8.00;;;31.50;99.90;;;;;;5017158;28;20458;-73
2023/06/22 11:43:16;;;;;;;10.33;7.57;;;31.60;99.90;;;;;;5016018;28;20528;-73
2023/06/22 11:45:44;;;;;;;8.70;6.97;;;31.60;99.90;;;;;;5016966;28;21004;-73
2023/06/22 11:48:10;;;;;;;7.57;6.87;;;31.40;99.90;;;;;;5016820;28;20449;-73
2023/06/22 11:50:37;;;;;;;13.30;7.60;;;31.40;99.90;;;;;;5016171;28;20445;-72
2023/06/22 11:53:04;;;;;;;7.00;6.30;;;31.50;99.90;;;;;;5016315;28;21298;-72
2023/06/22 11:55:31;;;;;;;8.20;7.20;;;31.60;99.90;;;;;;5015876;28;20475;-73
2023/06/22 11:58:01;;;;;;;7.83;7.00;;;31.80;99.90;;;;;;5016258;28;20572;-73
2023/06/22 12:00:27;;;;;;;11.37;7.13;;;32.00;99.90;;;;;;5016480;28;20471;-72
2023/06/22 12:02:55;;;;;;;9.83;8.00;;;32.10;99.90;;;;;;5015765;28;20474;-73
2023/06/22 12:05:23;;;;;;;10.63;7.17;;;31.90;99.90;;;;;;5016462;28;20536;-72
2023/06/22 12:07:50;;;;;;;9.23;7.20;;;32.00;99.90;;;;;;5015049;28;20512;-73
2023/06/22 12:10:17;;;;;;;9.50;7.60;;;32.30;99.90;;;;;;5015021;28;20453;-73
2023/06/22 12:12:43;;;;;;;8.50;7.17;;;32.50;99.90;;;;;;5015820;28;20482;-73
2023/06/22 12:15:11;;;;;;;8.13;7.33;;;32.50;99.90;;;;;;5014689;28;20508;-71
2023/06/22 12:17:38;;;;;;;12.23;7.10;;;32.40;99.90;;;;;;5016331;28;20493;-72
2023/06/22 12:20:07;;;;;;;18.37;7.90;;;32.00;99.90;;;;;;5016165;28;20962;-73
2023/06/22 12:22:34;;;;;;;15.37;7.57;;;31.70;99.90;;;;;;5014788;28;20504;-72
2023/06/22 12:25:01;;;;;;;13.40;7.47;;;31.70;99.90;;;;;;5015444;28;20519;-72
2023/06/22 12:27:29;;;;;;;10.70;8.00;;;31.90;99.90;;;;;;5015467;28;20450;-73
2023/06/22 12:29:56;;;;;;;10.33;7.47;;;32.10;99.90;;;;;;5015694;28;20454;-72
2023/06/22 12:32:23;;;;;;;11.27;7.53;;;32.30;99.90;;;;;;5013844;28;20496;-72